sensor_id;sensor_type;location;lat;lon;timestamp;temperature;humidity
21294;DHT22;10806;52.250;21.066;2022-09-09T00:00:41;23.40;49.50
21294;DHT22;10806;52.250;21.066;2022-09-09T00:03:22;23.40;49.50
21294;DHT22;10806;52.250;21.066;2022-09-09T00:06:30;23.40;49.50
21294;DHT22;10806;52.250;21.066;2022-09-09T00:11:58;23.40;49.60
21294;DHT22;10806;52.250;21.066;2022-09-09T00:17:08;23.40;49.70
21294;DHT22;10806;52.250;21.066;2022-09-09T00:20:03;23.40;49.70
21294;DHT22;10806;52.250;21.066;2022-09-09T00:22:36;23.40;49.70
21294;DHT22;10806;52.250;21.066;2022-09-09T00:25:23;23.40;49.80
21294;DHT22;10806;52.250;21.066;2022-09-09T00:27:51;23.40;49.80
21294;DHT22;10806;52.250;21.066;2022-09-09T00:30:25;23.40;49.80
21294;DHT22;10806;52.250;21.066;2022-09-09T00:32:59;23.40;49.80
21294;DHT22;10806;52.250;21.066;2022-09-09T00:35:31;23.40;49.80
21294;DHT22;10806;52.250;21.066;2022-09-09T00:38:01;23.40;49.90
21294;DHT22;10806;52.250;21.066;2022-09-09T00:40:41;23.40;49.90
21294;DHT22;10806;52.250;21.066;2022-09-09T00:43:16;23.40;50.00
21294;DHT22;10806;52.250;21.066;2022-09-09T00:48:54;23.40;50.20
21294;DHT22;10806;52.250;21.066;2022-09-09T00:51:38;23.40;50.20
21294;DHT22;10806;52.250;21.066;2022-09-09T00:54:57;23.40;50.30
21294;DHT22;10806;52.250;21.066;2022-09-09T00:57:32;23.40;50.30
21294;DHT22;10806;52.250;21.066;2022-09-09T01:00:21;23.30;50.20
21294;DHT22;10806;52.250;21.066;2022-09-09T01:06:05;23.30;50.20
21294;DHT22;10806;52.250;21.066;2022-09-09T01:10:54;23.30;50.20
21294;DHT22;10806;52.250;21.066;2022-09-09T01:13:28;23.30;50.30
21294;DHT22;10806;52.250;21.066;2022-09-09T01:15:59;23.30;50.20
21294;DHT22;10806;52.250;21.066;2022-09-09T01:18:44;23.30;50.30
21294;DHT22;10806;52.250;21.066;2022-09-09T01:21:33;23.30;50.20
21294;DHT22;10806;52.250;21.066;2022-09-09T01:24:18;23.30;50.30
21294;DHT22;10806;52.250;21.066;2022-09-09T01:26:46;23.30;50.30
21294;DHT22;10806;52.250;21.066;2022-09-09T01:29:15;23.30;50.30
21294;DHT22;10806;52.250;21.066;2022-09-09T01:31:56;23.30;50.30
21294;DHT22;10806;52.250;21.066;2022-09-09T01:34:25;23.30;50.30
21294;DHT22;10806;52.250;21.066;2022-09-09T01:37:03;23.30;50.30
21294;DHT22;10806;52.250;21.066;2022-09-09T01:39:35;23.30;50.30
21294;DHT22;10806;52.250;21.066;2022-09-09T01:42:03;23.30;50.30
21294;DHT22;10806;52.250;21.066;2022-09-09T01:44:30;23.30;50.30
21294;DHT22;10806;52.250;21.066;2022-09-09T01:46:56;23.30;50.30
21294;DHT22;10806;52.250;21.066;2022-09-09T01:49:22;23.30;50.30
21294;DHT22;10806;52.250;21.066;2022-09-09T01:51:51;23.30;50.30
21294;DHT22;10806;52.250;21.066;2022-09-09T01:54:22;23.30;50.40
21294;DHT22;10806;52.250;21.066;2022-09-09T01:57:09;23.30;50.30
21294;DHT22;10806;52.250;21.066;2022-09-09T02:00:04;23.30;50.30
21294;DHT22;10806;52.250;21.066;2022-09-09T02:02:44;23.30;51.10
21294;DHT22;10806;52.250;21.066;2022-09-09T02:05:38;23.30;50.40
21294;DHT22;10806;52.250;21.066;2022-09-09T02:08:10;23.30;50.40
21294;DHT22;10806;52.250;21.066;2022-09-09T02:10:53;23.30;50.30
21294;DHT22;10806;52.250;21.066;2022-09-09T02:13:21;23.30;50.40
21294;DHT22;10806;52.250;21.066;2022-09-09T02:15:53;23.30;50.40
21294;DHT22;10806;52.250;21.066;2022-09-09T02:18:29;23.30;50.40
21294;DHT22;10806;52.250;21.066;2022-09-09T02:20:58;23.30;50.40
21294;DHT22;10806;52.250;21.066;2022-09-09T02:23:24;23.30;50.40
21294;DHT22;10806;52.250;21.066;2022-09-09T02:25:51;23.30;50.50
21294;DHT22;10806;52.250;21.066;2022-09-09T02:28:20;23.30;50.50
21294;DHT22;10806;52.250;21.066;2022-09-09T02:30:48;23.30;50.50
21294;DHT22;10806;52.250;21.066;2022-09-09T02:33:19;23.30;50.50
21294;DHT22;10806;52.250;21.066;2022-09-09T02:35:45;23.30;50.50
21294;DHT22;10806;52.250;21.066;2022-09-09T02:38:13;23.20;50.50
21294;DHT22;10806;52.250;21.066;2022-09-09T02:40:40;23.30;50.50
21294;DHT22;10806;52.250;21.066;2022-09-09T02:43:06;23.30;50.60
21294;DHT22;10806;52.250;21.066;2022-09-09T02:45:43;23.30;50.60
21294;DHT22;10806;52.250;21.066;2022-09-09T02:51:08;23.30;50.70
21294;DHT22;10806;52.250;21.066;2022-09-09T02:54:10;23.30;50.60
21294;DHT22;10806;52.250;21.066;2022-09-09T02:56:43;23.20;50.60
21294;DHT22;10806;52.250;21.066;2022-09-09T02:59:12;23.20;50.60
21294;DHT22;10806;52.250;21.066;2022-09-09T03:01:38;23.30;50.70
21294;DHT22;10806;52.250;21.066;2022-09-09T03:04:05;23.30;50.70
21294;DHT22;10806;52.250;21.066;2022-09-09T03:06:30;23.30;50.70
21294;DHT22;10806;52.250;21.066;2022-09-09T03:08:58;23.20;50.70
21294;DHT22;10806;52.250;21.066;2022-09-09T03:11:27;23.30;50.70
21294;DHT22;10806;52.250;21.066;2022-09-09T03:13:53;23.20;50.70
21294;DHT22;10806;52.250;21.066;2022-09-09T03:16:21;23.20;50.70
21294;DHT22;10806;52.250;21.066;2022-09-09T03:18:47;23.20;50.70
21294;DHT22;10806;52.250;21.066;2022-09-09T03:21:13;23.20;50.70
21294;DHT22;10806;52.250;21.066;2022-09-09T03:23:39;23.20;50.70
21294;DHT22;10806;52.250;21.066;2022-09-09T03:26:05;23.30;50.80
21294;DHT22;10806;52.250;21.066;2022-09-09T03:28:30;23.20;50.80
21294;DHT22;10806;52.250;21.066;2022-09-09T03:31:04;23.20;50.80
21294;DHT22;10806;52.250;21.066;2022-09-09T03:33:30;23.20;50.80
21294;DHT22;10806;52.250;21.066;2022-09-09T03:35:56;23.20;51.50
21294;DHT22;10806;52.250;21.066;2022-09-09T03:38:25;23.20;51.50
21294;DHT22;10806;52.250;21.066;2022-09-09T03:40:52;23.20;50.90
21294;DHT22;10806;52.250;21.066;2022-09-09T03:43:23;23.20;50.90
21294;DHT22;10806;52.250;21.066;2022-09-09T03:45:49;23.20;50.90
21294;DHT22;10806;52.250;21.066;2022-09-09T03:48:16;23.20;50.90
21294;DHT22;10806;52.250;21.066;2022-09-09T03:50:49;23.20;50.90
21294;DHT22;10806;52.250;21.066;2022-09-09T03:53:16;23.20;50.90
21294;DHT22;10806;52.250;21.066;2022-09-09T03:55:53;23.20;50.90
21294;DHT22;10806;52.250;21.066;2022-09-09T03:58:21;23.20;50.90
21294;DHT22;10806;52.250;21.066;2022-09-09T04:01:04;23.20;50.90
21294;DHT22;10806;52.250;21.066;2022-09-09T04:03:31;23.20;50.90
21294;DHT22;10806;52.250;21.066;2022-09-09T04:05:58;23.20;50.90
21294;DHT22;10806;52.250;21.066;2022-09-09T04:08:24;23.20;51.00
21294;DHT22;10806;52.250;21.066;2022-09-09T04:10:53;23.20;51.60
21294;DHT22;10806;52.250;21.066;2022-09-09T04:13:24;23.20;51.00
21294;DHT22;10806;52.250;21.066;2022-09-09T04:15:51;23.20;51.00
21294;DHT22;10806;52.250;21.066;2022-09-09T04:18:17;23.20;51.00
21294;DHT22;10806;52.250;21.066;2022-09-09T04:20:43;23.20;51.00
21294;DHT22;10806;52.250;21.066;2022-09-09T04:23:10;23.20;51.00
21294;DHT22;10806;52.250;21.066;2022-09-09T04:25:36;23.20;51.00
21294;DHT22;10806;52.250;21.066;2022-09-09T04:28:03;23.20;51.00
21294;DHT22;10806;52.250;21.066;2022-09-09T04:30:28;23.20;51.70
21294;DHT22;10806;52.250;21.066;2022-09-09T04:32:54;23.20;51.10
21294;DHT22;10806;52.250;21.066;2022-09-09T04:35:19;23.20;51.10
21294;DHT22;10806;52.250;21.066;2022-09-09T04:37:45;23.20;51.10
21294;DHT22;10806;52.250;21.066;2022-09-09T04:40:11;23.20;51.10
21294;DHT22;10806;52.250;21.066;2022-09-09T04:42:37;23.20;51.10
21294;DHT22;10806;52.250;21.066;2022-09-09T04:45:04;23.20;51.10
21294;DHT22;10806;52.250;21.066;2022-09-09T04:47:30;23.20;51.10
21294;DHT22;10806;52.250;21.066;2022-09-09T04:49:55;23.20;51.10
21294;DHT22;10806;52.250;21.066;2022-09-09T04:52:21;23.20;51.10
21294;DHT22;10806;52.250;21.066;2022-09-09T04:54:47;23.20;51.10
21294;DHT22;10806;52.250;21.066;2022-09-09T04:57:13;23.20;51.10
21294;DHT22;10806;52.250;21.066;2022-09-09T04:59:39;23.20;51.10
21294;DHT22;10806;52.250;21.066;2022-09-09T05:02:05;23.20;51.10
21294;DHT22;10806;52.250;21.066;2022-09-09T05:04:30;23.20;51.10
21294;DHT22;10806;52.250;21.066;2022-09-09T05:06:56;23.20;51.20
21294;DHT22;10806;52.250;21.066;2022-09-09T05:09:22;23.20;51.20
21294;DHT22;10806;52.250;21.066;2022-09-09T05:11:47;23.20;51.20
21294;DHT22;10806;52.250;21.066;2022-09-09T05:14:13;23.20;51.80
21294;DHT22;10806;52.250;21.066;2022-09-09T05:16:40;23.20;51.20
21294;DHT22;10806;52.250;21.066;2022-09-09T05:19:05;23.20;51.20
21294;DHT22;10806;52.250;21.066;2022-09-09T05:21:33;23.20;51.20
21294;DHT22;10806;52.250;21.066;2022-09-09T05:23:59;23.20;51.20
21294;DHT22;10806;52.250;21.066;2022-09-09T05:26:26;23.20;51.20
21294;DHT22;10806;52.250;21.066;2022-09-09T05:28:51;23.20;51.20
21294;DHT22;10806;52.250;21.066;2022-09-09T05:31:18;23.20;51.20
21294;DHT22;10806;52.250;21.066;2022-09-09T05:33:45;23.20;51.20
21294;DHT22;10806;52.250;21.066;2022-09-09T05:36:14;23.20;51.90
21294;DHT22;10806;52.250;21.066;2022-09-09T05:38:40;23.20;51.20
21294;DHT22;10806;52.250;21.066;2022-09-09T05:41:07;23.10;51.20
21294;DHT22;10806;52.250;21.066;2022-09-09T05:43:33;23.20;51.20
21294;DHT22;10806;52.250;21.066;2022-09-09T05:46:15;23.20;51.30
21294;DHT22;10806;52.250;21.066;2022-09-09T05:48:43;23.20;51.20
21294;DHT22;10806;52.250;21.066;2022-09-09T05:51:10;23.20;51.20
21294;DHT22;10806;52.250;21.066;2022-09-09T05:53:38;23.20;51.30
21294;DHT22;10806;52.250;21.066;2022-09-09T05:56:09;23.20;51.30
21294;DHT22;10806;52.250;21.066;2022-09-09T05:58:36;23.20;51.30
21294;DHT22;10806;52.250;21.066;2022-09-09T06:01:07;23.20;51.30
21294;DHT22;10806;52.250;21.066;2022-09-09T06:03:40;23.20;51.30
21294;DHT22;10806;52.250;21.066;2022-09-09T06:06:11;23.20;51.30
21294;DHT22;10806;52.250;21.066;2022-09-09T06:08:39;23.20;51.30
21294;DHT22;10806;52.250;21.066;2022-09-09T06:11:10;23.20;51.40
21294;DHT22;10806;52.250;21.066;2022-09-09T06:13:36;23.20;51.40
21294;DHT22;10806;52.250;21.066;2022-09-09T06:16:12;23.20;51.40
21294;DHT22;10806;52.250;21.066;2022-09-09T06:18:39;23.20;51.40
21294;DHT22;10806;52.250;21.066;2022-09-09T06:21:07;23.20;51.40
21294;DHT22;10806;52.250;21.066;2022-09-09T06:23:33;23.20;51.50
21294;DHT22;10806;52.250;21.066;2022-09-09T06:26:10;23.20;51.50
21294;DHT22;10806;52.250;21.066;2022-09-09T06:28:37;23.20;51.50
21294;DHT22;10806;52.250;21.066;2022-09-09T06:31:04;23.20;51.50
21294;DHT22;10806;52.250;21.066;2022-09-09T06:33:32;23.20;51.70
21294;DHT22;10806;52.250;21.066;2022-09-09T06:36:00;23.20;52.20
21294;DHT22;10806;52.250;21.066;2022-09-09T06:38:27;23.20;52.30
21294;DHT22;10806;52.250;21.066;2022-09-09T06:40:58;23.20;52.30
21294;DHT22;10806;52.250;21.066;2022-09-09T06:43:28;23.20;52.40
21294;DHT22;10806;52.250;21.066;2022-09-09T06:45:54;23.20;52.50
21294;DHT22;10806;52.250;21.066;2022-09-09T06:48:20;23.20;52.60
21294;DHT22;10806;52.250;21.066;2022-09-09T06:50:46;23.20;52.50
21294;DHT22;10806;52.250;21.066;2022-09-09T06:53:11;23.30;52.60
21294;DHT22;10806;52.250;21.066;2022-09-09T06:55:37;23.30;52.60
21294;DHT22;10806;52.250;21.066;2022-09-09T06:58:08;23.30;52.60
21294;DHT22;10806;52.250;21.066;2022-09-09T07:00:33;23.20;52.60
21294;DHT22;10806;52.250;21.066;2022-09-09T07:02:59;23.30;52.70
21294;DHT22;10806;52.250;21.066;2022-09-09T07:05:25;23.30;52.80
21294;DHT22;10806;52.250;21.066;2022-09-09T07:07:51;23.30;52.80
21294;DHT22;10806;52.250;21.066;2022-09-09T07:10:17;23.30;53.40
21294;DHT22;10806;52.250;21.066;2022-09-09T07:12:43;23.30;52.80
21294;DHT22;10806;52.250;21.066;2022-09-09T07:15:08;23.30;52.80
21294;DHT22;10806;52.250;21.066;2022-09-09T07:17:35;23.30;52.80
21294;DHT22;10806;52.250;21.066;2022-09-09T07:20:01;23.30;52.90
21294;DHT22;10806;52.250;21.066;2022-09-09T07:22:27;23.30;52.90
21294;DHT22;10806;52.250;21.066;2022-09-09T07:24:53;23.30;52.90
21294;DHT22;10806;52.250;21.066;2022-09-09T07:27:18;23.30;52.90
21294;DHT22;10806;52.250;21.066;2022-09-09T07:29:44;23.30;52.80
21294;DHT22;10806;52.250;21.066;2022-09-09T07:32:10;23.30;53.00
21294;DHT22;10806;52.250;21.066;2022-09-09T07:34:36;23.30;52.90
21294;DHT22;10806;52.250;21.066;2022-09-09T07:37:02;23.30;52.90
21294;DHT22;10806;52.250;21.066;2022-09-09T07:39:27;23.40;52.90
21294;DHT22;10806;52.250;21.066;2022-09-09T07:41:53;23.40;52.90
21294;DHT22;10806;52.250;21.066;2022-09-09T07:44:22;23.30;52.80
21294;DHT22;10806;52.250;21.066;2022-09-09T07:46:48;23.30;52.80
21294;DHT22;10806;52.250;21.066;2022-09-09T07:49:14;23.40;52.80
21294;DHT22;10806;52.250;21.066;2022-09-09T07:51:42;23.40;52.80
21294;DHT22;10806;52.250;21.066;2022-09-09T07:54:10;23.40;52.90
21294;DHT22;10806;52.250;21.066;2022-09-09T07:56:38;23.40;53.50
21294;DHT22;10806;52.250;21.066;2022-09-09T07:59:04;23.40;52.90
21294;DHT22;10806;52.250;21.066;2022-09-09T08:01:36;23.40;52.90
21294;DHT22;10806;52.250;21.066;2022-09-09T08:04:09;23.40;52.90
21294;DHT22;10806;52.250;21.066;2022-09-09T08:06:40;23.40;52.90
21294;DHT22;10806;52.250;21.066;2022-09-09T08:09:07;23.30;52.90
21294;DHT22;10806;52.250;21.066;2022-09-09T08:11:33;23.40;52.80
21294;DHT22;10806;52.250;21.066;2022-09-09T08:13:59;23.40;52.90
21294;DHT22;10806;52.250;21.066;2022-09-09T08:16:27;23.40;52.70
21294;DHT22;10806;52.250;21.066;2022-09-09T08:18:53;23.40;52.90
21294;DHT22;10806;52.250;21.066;2022-09-09T08:21:22;23.40;52.90
21294;DHT22;10806;52.250;21.066;2022-09-09T08:23:50;23.40;52.90
21294;DHT22;10806;52.250;21.066;2022-09-09T08:26:19;23.40;53.00
21294;DHT22;10806;52.250;21.066;2022-09-09T08:28:53;23.40;53.00
21294;DHT22;10806;52.250;21.066;2022-09-09T08:31:27;23.40;53.00
21294;DHT22;10806;52.250;21.066;2022-09-09T08:33:57;23.40;53.00
21294;DHT22;10806;52.250;21.066;2022-09-09T08:36:27;23.40;53.10
21294;DHT22;10806;52.250;21.066;2022-09-09T08:38:55;23.40;53.10
21294;DHT22;10806;52.250;21.066;2022-09-09T08:58:23;23.40;53.40
21294;DHT22;10806;52.250;21.066;2022-09-09T09:09:21;23.40;53.30
21294;DHT22;10806;52.250;21.066;2022-09-09T09:11:48;23.40;53.40
21294;DHT22;10806;52.250;21.066;2022-09-09T09:14:26;23.40;53.40
21294;DHT22;10806;52.250;21.066;2022-09-09T09:16:58;23.40;53.40
21294;DHT22;10806;52.250;21.066;2022-09-09T09:19:26;23.40;53.40
21294;DHT22;10806;52.250;21.066;2022-09-09T09:22:01;23.40;53.40
21294;DHT22;10806;52.250;21.066;2022-09-09T09:24:40;23.40;53.20
21294;DHT22;10806;52.250;21.066;2022-09-09T09:27:18;23.40;53.10
21294;DHT22;10806;52.250;21.066;2022-09-09T09:29:48;23.40;53.20
21294;DHT22;10806;52.250;21.066;2022-09-09T09:32:18;23.40;53.60
21294;DHT22;10806;52.250;21.066;2022-09-09T09:34:51;23.40;53.80
21294;DHT22;10806;52.250;21.066;2022-09-09T09:37:30;23.40;54.00
21294;DHT22;10806;52.250;21.066;2022-09-09T09:40:07;23.50;54.30
21294;DHT22;10806;52.250;21.066;2022-09-09T09:42:32;23.50;54.40
21294;DHT22;10806;52.250;21.066;2022-09-09T09:45:19;23.50;54.60
21294;DHT22;10806;52.250;21.066;2022-09-09T09:47:46;23.50;54.60
21294;DHT22;10806;52.250;21.066;2022-09-09T09:50:19;23.50;54.70
21294;DHT22;10806;52.250;21.066;2022-09-09T09:52:58;23.50;54.80
21294;DHT22;10806;52.250;21.066;2022-09-09T09:55:24;23.50;54.90
21294;DHT22;10806;52.250;21.066;2022-09-09T09:57:51;23.50;55.00
21294;DHT22;10806;52.250;21.066;2022-09-09T10:00:21;23.60;55.10
21294;DHT22;10806;52.250;21.066;2022-09-09T10:02:48;23.60;55.30
21294;DHT22;10806;52.250;21.066;2022-09-09T10:05:26;23.60;55.50
21294;DHT22;10806;52.250;21.066;2022-09-09T10:08:18;23.60;55.60
21294;DHT22;10806;52.250;21.066;2022-09-09T10:16:18;23.60;55.90
21294;DHT22;10806;52.250;21.066;2022-09-09T10:19:15;23.60;56.00
21294;DHT22;10806;52.250;21.066;2022-09-09T10:32:41;23.60;55.30
21294;DHT22;10806;52.250;21.066;2022-09-09T10:35:33;23.60;55.40
21294;DHT22;10806;52.250;21.066;2022-09-09T10:38:38;23.60;55.40
21294;DHT22;10806;52.250;21.066;2022-09-09T10:41:18;23.60;55.30
21294;DHT22;10806;52.250;21.066;2022-09-09T10:49:52;23.50;55.30
21294;DHT22;10806;52.250;21.066;2022-09-09T10:55:20;23.40;55.00
21294;DHT22;10806;52.250;21.066;2022-09-09T10:57:52;23.40;55.10
21294;DHT22;10806;52.250;21.066;2022-09-09T11:00:43;23.50;55.20
21294;DHT22;10806;52.250;21.066;2022-09-09T11:03:22;23.50;55.20
21294;DHT22;10806;52.250;21.066;2022-09-09T11:05:55;23.50;55.20
21294;DHT22;10806;52.250;21.066;2022-09-09T11:08:26;23.60;55.20
21294;DHT22;10806;52.250;21.066;2022-09-09T11:10:53;23.60;55.20
21294;DHT22;10806;52.250;21.066;2022-09-09T11:16:10;23.60;55.30
21294;DHT22;10806;52.250;21.066;2022-09-09T11:18:39;23.60;55.30
21294;DHT22;10806;52.250;21.066;2022-09-09T11:21:10;23.60;55.30
21294;DHT22;10806;52.250;21.066;2022-09-09T11:23:45;23.60;55.40
21294;DHT22;10806;52.250;21.066;2022-09-09T11:26:31;23.60;55.00
21294;DHT22;10806;52.250;21.066;2022-09-09T11:29:32;23.50;55.10
21294;DHT22;10806;52.250;21.066;2022-09-09T11:38:39;23.20;54.60
21294;DHT22;10806;52.250;21.066;2022-09-09T11:40:34;23.20;54.70
21294;DHT22;10806;52.250;21.066;2022-09-09T11:45:32;23.10;54.90
21294;DHT22;10806;52.250;21.066;2022-09-09T11:48:00;23.10;55.00
21294;DHT22;10806;52.250;21.066;2022-09-09T11:53:15;23.00;55.10
21294;DHT22;10806;52.250;21.066;2022-09-09T11:55:42;23.10;55.10
21294;DHT22;10806;52.250;21.066;2022-09-09T12:00:39;23.20;55.80
21294;DHT22;10806;52.250;21.066;2022-09-09T12:03:45;23.20;56.00
21294;DHT22;10806;52.250;21.066;2022-09-09T12:06:31;23.30;56.20
21294;DHT22;10806;52.250;21.066;2022-09-09T12:11:32;23.40;56.50
21294;DHT22;10806;52.250;21.066;2022-09-09T12:13:59;23.40;56.60
21294;DHT22;10806;52.250;21.066;2022-09-09T12:16:33;23.40;56.60
21294;DHT22;10806;52.250;21.066;2022-09-09T12:22:03;23.40;56.80
21294;DHT22;10806;52.250;21.066;2022-09-09T12:24:49;23.40;56.80
21294;DHT22;10806;52.250;21.066;2022-09-09T12:27:23;23.50;56.80
21294;DHT22;10806;52.250;21.066;2022-09-09T12:30:07;23.50;56.90
21294;DHT22;10806;52.250;21.066;2022-09-09T12:32:35;23.50;56.80
21294;DHT22;10806;52.250;21.066;2022-09-09T12:37:48;23.50;56.90
21294;DHT22;10806;52.250;21.066;2022-09-09T12:40:21;23.50;56.70
21294;DHT22;10806;52.250;21.066;2022-09-09T12:42:47;23.50;56.60
21294;DHT22;10806;52.250;21.066;2022-09-09T12:45:21;23.50;56.70
21294;DHT22;10806;52.250;21.066;2022-09-09T12:47:56;23.50;56.70
21294;DHT22;10806;52.250;21.066;2022-09-09T12:50:25;23.50;56.60
21294;DHT22;10806;52.250;21.066;2022-09-09T12:55:56;23.50;56.60
21294;DHT22;10806;52.250;21.066;2022-09-09T12:58:23;23.50;56.60
21294;DHT22;10806;52.250;21.066;2022-09-09T13:00:52;23.50;56.50
21294;DHT22;10806;52.250;21.066;2022-09-09T13:03:20;23.50;56.50
21294;DHT22;10806;52.250;21.066;2022-09-09T13:05:46;23.50;56.70
21294;DHT22;10806;52.250;21.066;2022-09-09T13:08:13;23.50;56.70
21294;DHT22;10806;52.250;21.066;2022-09-09T13:11:01;23.50;56.70
21294;DHT22;10806;52.250;21.066;2022-09-09T13:13:37;23.50;57.30
21294;DHT22;10806;52.250;21.066;2022-09-09T13:16:05;23.50;56.70
21294;DHT22;10806;52.250;21.066;2022-09-09T13:18:35;23.60;56.70
21294;DHT22;10806;52.250;21.066;2022-09-09T13:21:02;23.60;56.70
21294;DHT22;10806;52.250;21.066;2022-09-09T13:23:33;23.60;56.70
21294;DHT22;10806;52.250;21.066;2022-09-09T13:26:24;23.60;56.60
21294;DHT22;10806;52.250;21.066;2022-09-09T13:28:54;23.60;56.60
21294;DHT22;10806;52.250;21.066;2022-09-09T13:31:30;23.60;56.70
21294;DHT22;10806;52.250;21.066;2022-09-09T13:33:58;23.60;56.60
21294;DHT22;10806;52.250;21.066;2022-09-09T13:36:31;23.60;56.70
21294;DHT22;10806;52.250;21.066;2022-09-09T13:38:58;23.60;56.70
21294;DHT22;10806;52.250;21.066;2022-09-09T13:41:36;23.60;56.50
21294;DHT22;10806;52.250;21.066;2022-09-09T13:44:03;23.60;56.60
21294;DHT22;10806;52.250;21.066;2022-09-09T13:46:37;23.60;56.70
21294;DHT22;10806;52.250;21.066;2022-09-09T13:51:44;23.60;56.50
21294;DHT22;10806;52.250;21.066;2022-09-09T13:54:14;23.50;56.50
21294;DHT22;10806;52.250;21.066;2022-09-09T13:56:41;23.50;56.20
21294;DHT22;10806;52.250;21.066;2022-09-09T13:59:18;23.50;56.00
21294;DHT22;10806;52.250;21.066;2022-09-09T14:01:47;23.50;55.80
21294;DHT22;10806;52.250;21.066;2022-09-09T14:04:14;23.50;55.70
21294;DHT22;10806;52.250;21.066;2022-09-09T14:06:41;23.50;55.50
21294;DHT22;10806;52.250;21.066;2022-09-09T14:09:10;23.40;55.40
21294;DHT22;10806;52.250;21.066;2022-09-09T14:11:35;23.40;55.30
21294;DHT22;10806;52.250;21.066;2022-09-09T14:14:01;23.40;55.20
21294;DHT22;10806;52.250;21.066;2022-09-09T14:16:27;23.40;55.20
21294;DHT22;10806;52.250;21.066;2022-09-09T14:18:53;23.40;55.10
21294;DHT22;10806;52.250;21.066;2022-09-09T14:21:21;23.40;55.10
21294;DHT22;10806;52.250;21.066;2022-09-09T14:23:46;23.40;55.00
21294;DHT22;10806;52.250;21.066;2022-09-09T14:26:15;23.40;55.00
21294;DHT22;10806;52.250;21.066;2022-09-09T14:28:40;23.40;55.00
21294;DHT22;10806;52.250;21.066;2022-09-09T14:31:06;23.40;55.50
21294;DHT22;10806;52.250;21.066;2022-09-09T14:33:32;23.40;55.70
21294;DHT22;10806;52.250;21.066;2022-09-09T14:36:00;23.40;55.90
21294;DHT22;10806;52.250;21.066;2022-09-09T14:38:34;23.40;56.20
21294;DHT22;10806;52.250;21.066;2022-09-09T14:41:04;23.40;56.40
21294;DHT22;10806;52.250;21.066;2022-09-09T14:43:29;23.40;56.80
21294;DHT22;10806;52.250;21.066;2022-09-09T14:46:04;23.40;57.00
21294;DHT22;10806;52.250;21.066;2022-09-09T14:48:31;23.40;57.10
21294;DHT22;10806;52.250;21.066;2022-09-09T14:50:56;23.40;57.30
21294;DHT22;10806;52.250;21.066;2022-09-09T14:53:22;23.40;57.40
21294;DHT22;10806;52.250;21.066;2022-09-09T14:55:47;23.40;57.40
21294;DHT22;10806;52.250;21.066;2022-09-09T14:58:13;23.40;57.40
21294;DHT22;10806;52.250;21.066;2022-09-09T15:00:39;23.40;57.40
21294;DHT22;10806;52.250;21.066;2022-09-09T15:03:04;23.40;57.60
21294;DHT22;10806;52.250;21.066;2022-09-09T15:05:30;23.40;57.60
21294;DHT22;10806;52.250;21.066;2022-09-09T15:07:57;23.40;57.70
21294;DHT22;10806;52.250;21.066;2022-09-09T15:10:24;23.40;57.90
21294;DHT22;10806;52.250;21.066;2022-09-09T15:12:49;23.40;57.90
21294;DHT22;10806;52.250;21.066;2022-09-09T15:15:15;23.40;57.80
21294;DHT22;10806;52.250;21.066;2022-09-09T15:17:41;23.40;57.90
21294;DHT22;10806;52.250;21.066;2022-09-09T15:20:07;23.40;58.00
21294;DHT22;10806;52.250;21.066;2022-09-09T15:22:33;23.40;58.00
21294;DHT22;10806;52.250;21.066;2022-09-09T15:24:59;23.30;57.90
21294;DHT22;10806;52.250;21.066;2022-09-09T15:27:24;23.30;57.30
21294;DHT22;10806;52.250;21.066;2022-09-09T15:29:50;23.20;57.10
21294;DHT22;10806;52.250;21.066;2022-09-09T15:32:17;23.20;57.20
21294;DHT22;10806;52.250;21.066;2022-09-09T15:34:43;23.20;57.40
21294;DHT22;10806;52.250;21.066;2022-09-09T15:37:12;23.30;58.30
21294;DHT22;10806;52.250;21.066;2022-09-09T15:39:40;23.40;58.50
21294;DHT22;10806;52.250;21.066;2022-09-09T15:42:06;23.40;58.60
21294;DHT22;10806;52.250;21.066;2022-09-09T15:44:40;23.50;58.80
21294;DHT22;10806;52.250;21.066;2022-09-09T15:47:07;23.50;59.00
21294;DHT22;10806;52.250;21.066;2022-09-09T15:49:33;23.50;59.30
21294;DHT22;10806;52.250;21.066;2022-09-09T15:51:59;23.50;59.50
21294;DHT22;10806;52.250;21.066;2022-09-09T15:54:31;23.50;59.80
21294;DHT22;10806;52.250;21.066;2022-09-09T15:57:00;23.60;59.90
21294;DHT22;10806;52.250;21.066;2022-09-09T15:59:27;23.60;60.10
21294;DHT22;10806;52.250;21.066;2022-09-09T16:01:53;23.60;60.00
21294;DHT22;10806;52.250;21.066;2022-09-09T16:04:21;23.60;60.30
21294;DHT22;10806;52.250;21.066;2022-09-09T16:06:54;23.60;60.30
21294;DHT22;10806;52.250;21.066;2022-09-09T16:09:20;23.60;60.40
21294;DHT22;10806;52.250;21.066;2022-09-09T16:11:46;23.60;60.60
21294;DHT22;10806;52.250;21.066;2022-09-09T16:14:13;23.60;60.60
21294;DHT22;10806;52.250;21.066;2022-09-09T16:16:41;23.70;61.40
21294;DHT22;10806;52.250;21.066;2022-09-09T16:19:09;23.60;60.70
21294;DHT22;10806;52.250;21.066;2022-09-09T16:21:38;23.60;60.70
21294;DHT22;10806;52.250;21.066;2022-09-09T16:24:06;23.70;60.70
21294;DHT22;10806;52.250;21.066;2022-09-09T16:26:33;23.70;60.50
21294;DHT22;10806;52.250;21.066;2022-09-09T16:29:00;23.60;59.80
21294;DHT22;10806;52.250;21.066;2022-09-09T16:31:27;23.60;58.10
21294;DHT22;10806;52.250;21.066;2022-09-09T16:33:53;23.50;57.60
21294;DHT22;10806;52.250;21.066;2022-09-09T16:36:27;23.50;57.50
21294;DHT22;10806;52.250;21.066;2022-09-09T16:38:54;23.50;57.50
21294;DHT22;10806;52.250;21.066;2022-09-09T16:41:21;23.50;57.30
21294;DHT22;10806;52.250;21.066;2022-09-09T16:43:47;23.50;57.20
21294;DHT22;10806;52.250;21.066;2022-09-09T16:46:18;23.50;57.10
21294;DHT22;10806;52.250;21.066;2022-09-09T16:48:46;23.50;57.00
21294;DHT22;10806;52.250;21.066;2022-09-09T16:51:15;23.50;56.90
21294;DHT22;10806;52.250;21.066;2022-09-09T16:53:41;23.50;56.80
21294;DHT22;10806;52.250;21.066;2022-09-09T16:56:13;23.50;56.60
21294;DHT22;10806;52.250;21.066;2022-09-09T16:58:40;23.40;56.50
21294;DHT22;10806;52.250;21.066;2022-09-09T17:01:05;23.40;56.60
21294;DHT22;10806;52.250;21.066;2022-09-09T17:03:31;23.40;56.50
21294;DHT22;10806;52.250;21.066;2022-09-09T17:05:58;23.40;56.50
21294;DHT22;10806;52.250;21.066;2022-09-09T17:08:28;23.40;56.30
21294;DHT22;10806;52.250;21.066;2022-09-09T17:10:54;23.40;55.90
21294;DHT22;10806;52.250;21.066;2022-09-09T17:13:27;23.40;55.80